Time;durP1;ratioP1;P1;durP2;ratioP2;P2;SDS_P1;SDS_P2;PMS_P1;PMS_P2;Temp;Humidity;BMP_temperature;BMP_pressure;BME280_temperature;BME280_humidity;BME280_pressure;Samples;Min_cycle;Max_cycle;Signal;HPM_P1;HPM_P2
2021/12/05 00:23:53;;;;;;;14.80;4.03;;;4.20;88.70;;;;;;5034475;28;20048;-75
2021/12/05 00:26:20;;;;;;;9.82;4.05;;;4.20;88.60;;;;;;5030368;28;20022;-74
2021/12/05 00:52:38;;;;;;;12.77;3.80;;;4.50;89.50;;;;;;5029719;28;20041;-75
2021/12/05 01:00:35;;;;;;;17.67;3.80;;;4.40;89.90;;;;;;5029904;28;20045;-75
2021/12/05 01:14:27;;;;;;;16.13;4.68;;;4.40;90.30;;;;;;5028660;28;20037;-75
2021/12/05 01:16:52;;;;;;;9.32;3.30;;;4.50;90.40;;;;;;5028997;28;20021;-75
2021/12/05 01:19:22;;;;;;;13.32;3.90;;;4.50;90.30;;;;;;5029311;28;20099;-74
2021/12/05 01:21:51;;;;;;;10.60;3.70;;;4.50;90.30;;;;;;5028936;28;20129;-77
2021/12/05 01:53:00;;;;;;;10.82;4.32;;;4.70;90.30;;;;;;5028145;28;20049;-75
2021/12/05 01:55:55;;;;;;;11.05;4.20;;;4.70;90.20;;;;;;5025554;28;20030;-75
2021/12/05 02:31:32;;;;;;;9.83;3.20;;;4.90;90.40;;;;;;5026625;28;20424;-74
2021/12/05 02:41:52;;;;;;;9.98;3.95;;;4.80;90.50;;;;;;5026997;28;20053;-74
2021/12/05 02:46:49;;;;;;;13.02;4.10;;;4.80;90.60;;;;;;5028852;28;20048;-76
2021/12/05 02:49:15;;;;;;;9.40;3.42;;;4.90;90.70;;;;;;5026027;28;20116;-75
2021/12/05 02:51:42;;;;;;;12.07;3.80;;;4.80;90.70;;;;;;5029296;28;20084;-75
2021/12/05 02:54:17;;;;;;;11.55;3.70;;;4.80;90.80;;;;;;5023133;28;20041;-77
2021/12/05 02:56:47;;;;;;;10.10;3.50;;;4.80;90.90;;;;;;5028979;28;20172;-75
2021/12/05 03:01:59;;;;;;;11.43;3.50;;;4.80;90.90;;;;;;5028222;28;20041;-76
2021/12/05 03:04:30;;;;;;;9.50;3.63;;;4.80;91.00;;;;;;5025237;28;20057;-78
2021/12/05 03:06:56;;;;;;;12.25;3.85;;;4.80;91.00;;;;;;5021373;28;20026;-74
2021/12/05 03:09:23;;;;;;;8.75;3.10;;;4.80;91.00;;;;;;5027269;28;20385;-74
2021/12/05 03:11:51;;;;;;;11.50;3.33;;;4.80;91.00;;;;;;5023584;28;20110;-75
2021/12/05 03:14:17;;;;;;;12.32;3.65;;;4.90;90.90;;;;;;5024974;28;20041;-74
2021/12/05 03:16:43;;;;;;;15.77;3.72;;;4.90;90.90;;;;;;5025994;28;20171;-74
2021/12/05 03:19:10;;;;;;;10.57;3.80;;;4.90;90.90;;;;;;5026258;28;20112;-75
2021/12/05 03:21:38;;;;;;;11.95;3.70;;;4.90;90.80;;;;;;5026744;28;20036;-76
2021/12/05 03:24:05;;;;;;;13.50;4.07;;;4.90;90.90;;;;;;5025298;28;20026;-75
2021/12/05 03:26:34;;;;;;;11.50;3.95;;;4.90;90.90;;;;;;5023042;28;20073;-76
2021/12/05 03:29:00;;;;;;;12.93;4.53;;;4.90;91.00;;;;;;5024840;28;20041;-77
2021/12/05 03:31:29;;;;;;;11.13;4.00;;;4.90;91.00;;;;;;5022700;28;20038;-75
2021/12/05 03:33:55;;;;;;;12.40;4.43;;;4.80;91.10;;;;;;5028057;28;20041;-75
2021/12/05 03:36:22;;;;;;;10.25;4.10;;;4.80;91.20;;;;;;5025935;28;20057;-75
2021/12/05 03:38:48;;;;;;;15.43;5.78;;;4.80;91.40;;;;;;5027324;28;20037;-78
2021/12/05 03:41:16;;;;;;;13.07;4.60;;;4.80;91.50;;;;;;5023968;28;20075;-75
2021/12/05 03:43:44;;;;;;;8.98;4.35;;;4.80;91.50;;;;;;5024178;28;20033;-79
2021/12/05 03:46:11;;;;;;;9.88;4.97;;;4.80;91.50;;;;;;5026780;28;20046;-74
2021/12/05 03:48:41;;;;;;;11.25;4.55;;;4.80;91.40;;;;;;5026300;28;20096;-77
2021/12/05 03:51:10;;;;;;;11.48;4.15;;;4.80;91.40;;;;;;5028731;28;20034;-75
2021/12/05 03:53:36;;;;;;;11.60;4.38;;;4.80;91.50;;;;;;5027040;28;20069;-75
2021/12/05 03:56:04;;;;;;;8.93;3.92;;;4.80;91.40;;;;;;5018016;28;20405;-75
2021/12/05 03:58:30;;;;;;;10.07;3.70;;;4.80;91.40;;;;;;5030192;28;20029;-75
2021/12/05 04:00:58;;;;;;;9.80;3.63;;;4.80;91.50;;;;;;5031329;28;20037;-75
2021/12/05 04:03:27;;;;;;;9.20;3.95;;;4.80;91.50;;;;;;5030399;28;20573;-75
2021/12/05 04:05:53;;;;;;;10.32;3.70;;;4.80;91.40;;;;;;5031653;28;20434;-74
2021/12/05 04:08:22;;;;;;;10.85;3.78;;;4.80;91.50;;;;;;5027702;28;20032;-74
2021/12/05 04:10:51;;;;;;;10.88;3.92;;;4.90;91.50;;;;;;5008509;28;20033;-74
2021/12/05 04:13:17;;;;;;;9.20;4.13;;;4.80;91.50;;;;;;5012874;28;20044;-75
2021/12/05 04:15:44;;;;;;;12.55;4.95;;;4.90;91.50;;;;;;5038052;28;20044;-73
2021/12/05 04:18:10;;;;;;;9.85;4.40;;;4.80;91.40;;;;;;5004818;28;20029;-75
2021/12/05 04:20:36;;;;;;;12.52;5.03;;;4.90;91.50;;;;;;5010833;28;20109;-74
2021/12/05 04:23:02;;;;;;;12.30;6.30;;;4.80;91.60;;;;;;5002888;28;20474;-79
2021/12/05 04:25:28;;;;;;;10.68;5.05;;;4.80;91.60;;;;;;5034044;28;20117;-75
2021/12/05 04:27:56;;;;;;;12.30;5.00;;;4.90;91.60;;;;;;4993734;28;20113;-77
2021/12/05 04:30:24;;;;;;;9.38;4.50;;;4.80;91.60;;;;;;5004184;28;20109;-74
2021/12/05 04:32:50;;;;;;;11.55;4.40;;;4.80;91.60;;;;;;5024112;28;20143;-74
2021/12/05 04:35:17;;;;;;;8.82;4.15;;;4.80;91.50;;;;;;5029676;28;20520;-75
2021/12/05 04:37:43;;;;;;;8.65;4.30;;;4.90;91.60;;;;;;5030268;28;20026;-75
2021/12/05 04:40:11;;;;;;;8.57;4.53;;;4.80;91.50;;;;;;5030545;28;20444;-75
2021/12/05 04:42:37;;;;;;;8.88;4.10;;;4.80;91.60;;;;;;5028102;28;20488;-74
2021/12/05 04:45:08;;;;;;;9.52;3.90;;;4.80;91.60;;;;;;5030695;28;20025;-76
2021/12/05 04:47:33;;;;;;;10.30;3.85;;;4.80;91.60;;;;;;5026965;28;20041;-75
2021/12/05 04:49:59;;;;;;;6.57;3.10;;;4.80;91.50;;;;;;5030634;28;20030;-76
2021/12/05 04:52:25;;;;;;;6.57;3.00;;;4.80;91.50;;;;;;5029508;28;20033;-76
2021/12/05 04:54:51;;;;;;;6.25;3.13;;;4.80;91.50;;;;;;5029802;28;20117;-74
2021/12/05 04:57:17;;;;;;;6.82;3.42;;;4.80;91.40;;;;;;5028890;28;20087;-75
2021/12/05 04:59:47;;;;;;;9.25;3.25;;;4.80;91.50;;;;;;5028522;28;20038;-74
2021/12/05 05:02:14;;;;;;;8.38;3.03;;;4.90;91.40;;;;;;5039990;28;20033;-75
2021/12/05 05:04:45;;;;;;;7.13;2.90;;;4.90;91.40;;;;;;5041178;28;20083;-75
2021/12/05 05:07:19;;;;;;;7.47;2.97;;;4.90;91.40;;;;;;5035490;28;20385;-74
2021/12/05 05:09:46;;;;;;;7.65;3.42;;;4.90;91.40;;;;;;5007883;28;20057;-75
2021/12/05 05:12:12;;;;;;;7.47;4.03;;;4.90;91.40;;;;;;5030548;28;20108;-78
2021/12/05 05:14:38;;;;;;;7.32;4.35;;;4.90;91.30;;;;;;5036610;28;20037;-74
2021/12/05 05:17:04;;;;;;;8.57;4.72;;;4.90;91.40;;;;;;5026784;28;20104;-78
2021/12/05 05:19:36;;;;;;;11.65;4.05;;;4.80;91.30;;;;;;5027493;28;20033;-74
2021/12/05 05:22:08;;;;;;;8.38;4.13;;;4.90;91.30;;;;;;5027540;28;20093;-76
2021/12/05 05:30:18;;;;;;;8.80;5.00;;;4.90;91.40;;;;;;5024291;28;20028;-76
2021/12/05 05:48:40;;;;;;;9.20;3.97;;;4.90;91.30;;;;;;5030398;28;20072;-74
2021/12/05 05:51:08;;;;;;;11.82;4.78;;;4.90;91.40;;;;;;5033344;28;20646;-77
2021/12/05 05:53:35;;;;;;;9.88;4.43;;;4.90;91.40;;;;;;5039030;28;20128;-75
2021/12/05 05:56:02;;;;;;;10.02;4.22;;;4.90;91.50;;;;;;5030996;28;20032;-76
2021/12/05 05:58:48;;;;;;;11.55;5.53;;;4.90;91.60;;;;;;5029649;28;20057;-74
2021/12/05 06:03:59;;;;;;;4.55;2.70;;;4.60;90.60;;;;;;5030643;28;20119;-74
2021/12/05 06:06:25;;;;;;;5.88;3.10;;;4.30;90.20;;;;;;5030076;28;20480;-74
2021/12/05 06:08:51;;;;;;;3.83;2.20;;;4.20;90.30;;;;;;5030059;28;20056;-74
2021/12/05 06:11:17;;;;;;;3.60;2.10;;;4.20;90.40;;;;;;5028532;28;20049;-74
2021/12/05 06:13:44;;;;;;;3.15;2.00;;;4.20;90.30;;;;;;5028803;28;20038;-74
2021/12/05 06:16:12;;;;;;;4.55;2.55;;;4.20;90.40;;;;;;5029533;28;20054;-74
2021/12/05 06:18:39;;;;;;;3.80;2.25;;;4.10;90.50;;;;;;5028796;28;20388;-75
2021/12/05 06:21:06;;;;;;;2.47;1.50;;;4.10;90.60;;;;;;5029085;28;20120;-72
2021/12/05 06:23:32;;;;;;;4.72;1.60;;;4.10;90.70;;;;;;5016516;28;20050;-73
2021/12/05 06:25:58;;;;;;;2.88;1.52;;;4.10;90.90;;;;;;4998673;28;20117;-74
2021/12/05 06:28:32;;;;;;;2.28;1.48;;;4.10;91.10;;;;;;5011355;28;20117;-74
2021/12/05 06:42:08;;;;;;;1.83;1.47;;;4.20;91.20;;;;;;5028569;28;20053;-73
2021/12/05 06:47:23;;;;;;;;;;;4.30;91.30;;;;;;5029077;28;20068;-73
2021/12/05 06:49:50;;;;;;;6.47;2.85;;;4.30;91.30;;;;;;5027482;28;20280;-77
2021/12/05 06:52:16;;;;;;;5.15;3.00;;;4.30;91.30;;;;;;5028397;28;20025;-75
2021/12/05 06:54:42;;;;;;;6.28;3.38;;;4.30;91.20;;;;;;5028068;28;20049;-74
2021/12/05 06:57:09;;;;;;;5.13;3.33;;;4.30;91.20;;;;;;5029815;28;20499;-74
2021/12/05 06:59:38;;;;;;;7.53;4.35;;;4.30;91.30;;;;;;5023930;28;20564;-74
2021/12/05 07:02:04;;;;;;;7.43;4.18;;;4.40;91.40;;;;;;5028325;28;20037;-75
2021/12/05 07:06:59;;;;;;;10.07;7.60;;;4.40;91.30;;;;;;5029039;28;20476;-80
2021/12/05 07:09:26;;;;;;;11.15;8.13;;;4.40;91.20;;;;;;5029200;28;20029;-73
2021/12/05 07:12:29;;;;;;;12.05;8.95;;;4.40;91.20;;;;;;5028641;28;20489;-73
2021/12/05 07:22:40;;;;;;;11.50;7.57;;;4.40;91.20;;;;;;5029808;28;20433;-73
2021/12/05 07:25:25;;;;;;;8.93;7.00;;;4.40;91.20;;;;;;5028554;28;20461;-72
2021/12/05 07:44:11;;;;;;;10.18;6.03;;;4.50;91.00;;;;;;5029147;28;20044;-73
2021/12/05 07:46:37;;;;;;;9.00;6.03;;;4.50;91.10;;;;;;5031176;28;20036;-72
2021/12/05 07:49:05;;;;;;;9.20;5.97;;;4.50;91.10;;;;;;5031777;28;20037;-73
2021/12/05 07:51:32;;;;;;;8.90;5.90;;;4.50;91.10;;;;;;5031147;28;20034;-72
2021/12/05 07:54:10;;;;;;;8.77;5.57;;;4.50;91.20;;;;;;5032664;28;20116;-73
2021/12/05 07:56:48;;;;;;;8.48;5.53;;;4.50;91.30;;;;;;5031596;28;20029;-73
2021/12/05 08:15:46;;;;;;;8.98;5.70;;;4.50;91.30;;;;;;5030038;28;20044;-73
2021/12/05 08:18:12;;;;;;;11.25;5.75;;;4.50;91.40;;;;;;5029885;28;20396;-74
2021/12/05 08:20:40;;;;;;;9.15;5.50;;;4.50;91.50;;;;;;5031486;28;20053;-74
2021/12/05 08:23:08;;;;;;;8.40;5.68;;;4.50;91.50;;;;;;5031907;28;20044;-75
2021/12/05 08:25:37;;;;;;;9.80;6.88;;;4.50;91.60;;;;;;5032024;28;20029;-74
2021/12/05 08:31:08;;;;;;;11.15;7.70;;;4.60;91.70;;;;;;5019079;28;20042;-70
2021/12/05 08:36:54;;;;;;;12.68;8.90;;;4.80;91.70;;;;;;5019233;28;20429;-72
2021/12/05 08:42:38;;;;;;;11.45;8.52;;;4.90;91.60;;;;;;5024831;28;20091;-72
2021/12/05 09:23:49;;;;;;;13.15;9.43;;;5.40;90.60;;;;;;5048084;28;20408;-71
2021/12/05 10:06:47;;;;;;;;;;;6.20;89.30;;;;;;5022119;28;20124;-71
2021/12/05 10:14:55;;;;;;;21.33;14.18;;;6.40;88.80;;;;;;5025333;28;20053;-71
2021/12/05 10:17:41;;;;;;;17.92;13.07;;;6.40;88.60;;;;;;5024479;28;20041;-72
2021/12/05 10:34:56;;;;;;;16.85;13.27;;;6.70;87.60;;;;;;5023048;28;20045;-71
2021/12/05 10:37:25;;;;;;;18.25;13.65;;;6.60;87.50;;;;;;5023748;28;20046;-71
2021/12/05 10:40:13;;;;;;;16.05;13.35;;;6.70;87.60;;;;;;5027575;28;20037;-70
2021/12/05 10:42:45;;;;;;;21.88;13.95;;;6.70;87.10;;;;;;5024127;28;20032;-73
2021/12/05 10:45:38;;;;;;;20.90;16.20;;;6.70;87.30;;;;;;5019450;28;20049;-71
2021/12/05 10:48:08;;;;;;;23.08;18.08;;;6.50;86.50;;;;;;5026010;28;20470;-74
2021/12/05 10:50:44;;;;;;;20.13;15.60;;;6.40;86.90;;;;;;5026999;28;20034;-72
2021/12/05 10:53:44;;;;;;;20.27;15.23;;;6.30;86.80;;;;;;5026637;28;20037;-72
2021/12/05 10:56:21;;;;;;;18.85;14.65;;;6.20;87.10;;;;;;5023098;28;20650;-71
2021/12/05 10:58:51;;;;;;;20.83;15.85;;;6.20;87.40;;;;;;5022860;28;20560;-72
2021/12/05 11:01:29;;;;;;;21.85;16.13;;;6.20;87.20;;;;;;5028738;28;20044;-72
2021/12/05 11:03:59;;;;;;;22.60;17.88;;;6.30;87.70;;;;;;5025406;28;20406;-73
2021/12/05 11:06:31;;;;;;;23.17;17.85;;;6.30;87.10;;;;;;5011474;28;21707;-72
2021/12/05 11:09:01;;;;;;;24.00;18.05;;;6.40;87.20;;;;;;5014281;28;20026;-72
2021/12/05 11:11:27;;;;;;;24.88;17.67;;;6.60;87.50;;;;;;5033794;28;20047;-71
2021/12/05 11:13:54;;;;;;;22.55;17.50;;;6.90;86.90;;;;;;5033803;28;20121;-71
2021/12/05 11:16:42;;;;;;;23.83;19.30;;;7.00;86.50;;;;;;5027789;28;20384;-72
2021/12/05 11:19:34;;;;;;;25.50;20.10;;;7.10;85.70;;;;;;5031950;28;20083;-71
2021/12/05 11:22:28;;;;;;;25.20;18.80;;;7.20;85.40;;;;;;5024168;28;20060;-71
2021/12/05 11:25:09;;;;;;;25.35;18.90;;;7.10;84.30;;;;;;5014656;28;20065;-70
2021/12/05 11:27:49;;;;;;;23.38;18.95;;;7.20;84.40;;;;;;5029365;28;20053;-71
2021/12/05 11:30:31;;;;;;;21.77;17.23;;;7.10;84.40;;;;;;5028189;28;20087;-70
2021/12/05 11:33:06;;;;;;;23.38;18.88;;;7.00;84.30;;;;;;5022830;28;20045;-74
2021/12/05 11:35:38;;;;;;;25.80;19.55;;;6.90;84.40;;;;;;5035533;28;20046;-73
2021/12/05 11:38:25;;;;;;;29.05;21.45;;;6.90;84.90;;;;;;5027057;28;20374;-71
2021/12/05 11:40:55;;;;;;;26.30;20.90;;;7.10;85.40;;;;;;5018978;28;20571;-70
2021/12/05 11:43:28;;;;;;;25.83;20.38;;;7.40;84.40;;;;;;5033424;28;20029;-72
2021/12/05 11:46:07;;;;;;;29.63;23.15;;;7.60;84.10;;;;;;5020808;28;20068;-70
2021/12/05 11:48:52;;;;;;;27.35;22.73;;;7.80;84.50;;;;;;5031637;28;20048;-71
2021/12/05 11:51:27;;;;;;;22.95;18.80;;;8.00;84.00;;;;;;5020683;28;20441;-72
2021/12/05 11:53:55;;;;;;;18.65;14.45;;;8.10;83.00;;;;;;5025127;28;20080;-72
2021/12/05 11:56:30;;;;;;;19.27;15.27;;;7.90;81.80;;;;;;5031668;28;20076;-71
2021/12/05 11:59:20;;;;;;;16.10;13.38;;;7.90;81.60;;;;;;5026064;28;20461;-71
2021/12/05 12:02:04;;;;;;;15.40;12.65;;;7.80;81.20;;;;;;5027908;28;20476;-71
2021/12/05 12:04:59;;;;;;;17.57;13.83;;;7.80;81.30;;;;;;5023569;28;20042;-72
2021/12/05 12:07:34;;;;;;;15.37;11.53;;;7.70;81.30;;;;;;5028899;28;20105;-73
2021/12/05 12:10:38;;;;;;;15.60;12.82;;;7.50;80.70;;;;;;5030304;28;20072;-71
2021/12/05 12:13:08;;;;;;;16.20;13.25;;;7.30;81.30;;;;;;5010856;28;20140;-72
2021/12/05 12:15:35;;;;;;;16.13;12.77;;;7.20;81.70;;;;;;5026572;28;20398;-75
2021/12/05 12:18:11;;;;;;;15.88;12.40;;;7.10;82.30;;;;;;5042608;28;20041;-73
2021/12/05 12:20:39;;;;;;;15.90;12.05;;;7.10;82.30;;;;;;5026920;28;20033;-71
2021/12/05 12:23:06;;;;;;;14.38;11.32;;;6.90;82.60;;;;;;5027481;28;20473;-71
2021/12/05 12:25:37;;;;;;;13.52;10.35;;;6.90;83.00;;;;;;5020429;28;20128;-70
2021/12/05 12:28:04;;;;;;;12.80;10.40;;;6.90;82.90;;;;;;5005666;28;20119;-71
2021/12/05 12:30:35;;;;;;;11.55;9.48;;;6.80;83.10;;;;;;5003656;28;20041;-71
2021/12/05 12:33:20;;;;;;;12.73;8.95;;;6.90;83.30;;;;;;5017107;28;20065;-73
2021/12/05 12:35:48;;;;;;;12.68;9.43;;;7.00;83.30;;;;;;5025612;28;20049;-74
2021/12/05 12:38:21;;;;;;;11.68;9.25;;;7.10;83.10;;;;;;5021741;28;20045;-70
2021/12/05 12:40:57;;;;;;;11.88;9.38;;;7.10;83.20;;;;;;5020115;28;20037;-71
2021/12/05 12:43:42;;;;;;;11.38;8.75;;;7.10;83.40;;;;;;5008514;28;20030;-71
2021/12/05 12:46:38;;;;;;;11.00;8.27;;;7.00;83.20;;;;;;5017332;28;20041;-72
2021/12/05 12:49:16;;;;;;;11.95;8.65;;;6.90;83.20;;;;;;5016231;28;20057;-71
2021/12/05 12:51:50;;;;;;;11.02;8.48;;;6.90;83.60;;;;;;5019613;28;20520;-72
2021/12/05 12:54:17;;;;;;;11.43;8.27;;;6.90;83.80;;;;;;5027283;28;20076;-72
2021/12/05 12:57:13;;;;;;;10.63;7.95;;;6.90;83.80;;;;;;5023375;28;20033;-71
2021/12/05 12:59:55;;;;;;;12.32;8.13;;;7.10;83.70;;;;;;5025720;28;20042;-72
2021/12/05 13:03:14;;;;;;;12.43;8.57;;;7.10;82.80;;;;;;5029188;28;20492;-71
2021/12/05 13:05:34;;;;;;;9.82;7.10;;;7.20;83.10;;;;;;5021976;28;20034;-73
2021/12/05 13:11:02;;;;;;;9.38;6.22;;;7.40;82.10;;;;;;5024763;28;20068;-72
2021/12/05 13:13:31;;;;;;;9.30;6.25;;;7.50;81.60;;;;;;5024164;28;20428;-73
2021/12/05 13:16:08;;;;;;;8.00;5.75;;;7.50;80.70;;;;;;5026594;28;20443;-70
2021/12/05 13:18:40;;;;;;;8.20;5.03;;;7.60;81.10;;;;;;5027662;28;20125;-72
2021/12/05 13:21:26;;;;;;;6.82;4.20;;;7.60;80.20;;;;;;5026240;28;20044;-71
2021/12/05 13:23:52;;;;;;;8.40;4.88;;;7.60;79.50;;;;;;5026617;28;20034;-71
2021/12/05 13:26:27;;;;;;;7.10;4.05;;;7.50;79.20;;;;;;5029229;28;20041;-74
2021/12/05 13:28:56;;;;;;;;;;;7.50;79.30;;;;;;5024063;28;20032;-72
2021/12/05 13:31:27;;;;;;;10.20;4.78;;;7.50;79.80;;;;;;5020656;28;19956;-72
2021/12/05 13:34:29;;;;;;;13.05;7.43;;;7.50;79.30;;;;;;5024289;28;20440;-72
2021/12/05 13:37:07;;;;;;;7.95;4.47;;;7.50;79.70;;;;;;5024731;28;20050;-71
2021/12/05 13:39:52;;;;;;;7.32;4.35;;;7.50;79.70;;;;;;5028225;28;20140;-72
2021/12/05 13:42:19;;;;;;;8.57;4.00;;;7.50;79.20;;;;;;5023057;28;20041;-72
2021/12/05 13:45:00;;;;;;;6.03;3.88;;;7.60;79.40;;;;;;5023032;28;20056;-71
2021/12/05 13:48:05;;;;;;;6.38;4.25;;;7.60;79.80;;;;;;5023235;28;20034;-73
2021/12/05 13:50:42;;;;;;;9.35;5.45;;;7.50;79.40;;;;;;5026884;28;20526;-70
2021/12/05 13:53:08;;;;;;;8.93;4.90;;;7.50;79.70;;;;;;5022461;28;20025;-71
2021/12/05 13:55:40;;;;;;;8.02;4.80;;;7.60;79.30;;;;;;5021410;28;20052;-72
2021/12/05 13:58:35;;;;;;;6.90;4.22;;;7.60;79.40;;;;;;5022465;28;20473;-71
2021/12/05 14:01:06;;;;;;;6.93;4.65;;;7.60;78.60;;;;;;5005466;28;20056;-73
2021/12/05 14:03:56;;;;;;;6.57;4.47;;;7.60;77.20;;;;;;5017356;28;20056;-71
2021/12/05 14:07:01;;;;;;;7.28;4.93;;;7.60;77.60;;;;;;5027192;28;20370;-72
2021/12/05 14:09:36;;;;;;;7.30;4.43;;;7.60;77.50;;;;;;5021859;28;20420;-72
2021/12/05 14:12:07;;;;;;;;;;;7.50;77.50;;;;;;5019982;28;20053;-71
2021/12/05 14:14:39;;;;;;;8.30;4.60;;;7.60;77.80;;;;;;5023942;28;19973;-72
2021/12/05 14:17:12;;;;;;;7.68;4.82;;;7.60;78.30;;;;;;5025222;28;20037;-72
2021/12/05 14:19:41;;;;;;;7.63;4.63;;;7.60;78.60;;;;;;5027527;28;20037;-72
2021/12/05 14:22:09;;;;;;;10.77;5.80;;;7.60;78.80;;;;;;5024604;28;20042;-71
2021/12/05 14:24:40;;;;;;;7.97;5.43;;;7.60;79.00;;;;;;5024764;28;20092;-71
2021/12/05 14:27:09;;;;;;;8.73;4.95;;;7.60;79.20;;;;;;5025837;28;20132;-71
2021/12/05 14:29:39;;;;;;;7.45;4.72;;;7.50;78.70;;;;;;5025149;28;20385;-71
2021/12/05 14:32:31;;;;;;;7.93;4.20;;;7.50;78.50;;;;;;5027009;28;20068;-74
2021/12/05 14:35:15;;;;;;;7.78;4.95;;;7.50;78.90;;;;;;5019275;28;20083;-71
2021/12/05 14:37:43;;;;;;;7.57;4.88;;;7.50;79.40;;;;;;5026379;28;20033;-71
2021/12/05 14:40:36;;;;;;;6.82;4.70;;;7.40;79.80;;;;;;5025756;28;20044;-72
2021/12/05 14:43:06;;;;;;;6.88;4.55;;;7.40;79.90;;;;;;5014491;28;20354;-72
2021/12/05 14:45:39;;;;;;;9.95;6.47;;;7.40;80.30;;;;;;5026182;28;20207;-72
2021/12/05 14:48:15;;;;;;;13.50;9.38;;;7.40;80.50;;;;;;5025618;28;20041;-72
2021/12/05 14:50:43;;;;;;;13.18;9.38;;;7.30;80.70;;;;;;5027528;28;20075;-71
2021/12/05 14:53:12;;;;;;;15.95;10.00;;;7.30;80.90;;;;;;5017284;28;20524;-72
2021/12/05 14:55:37;;;;;;;12.20;8.88;;;7.20;81.00;;;;;;5023470;28;20501;-71
2021/12/05 14:58:09;;;;;;;12.02;8.45;;;7.20;81.20;;;;;;5022552;28;20076;-72
2021/12/05 15:00:38;;;;;;;12.00;8.25;;;7.10;81.40;;;;;;5024486;28;20037;-74
2021/12/05 15:03:15;;;;;;;10.98;7.63;;;7.10;81.50;;;;;;5013581;28;20042;-71
2021/12/05 15:05:49;;;;;;;10.38;7.68;;;7.10;81.70;;;;;;5016072;28;20044;-72
2021/12/05 15:08:18;;;;;;;12.20;8.80;;;7.00;82.00;;;;;;5037054;28;20052;-72
2021/12/05 15:10:45;;;;;;;11.57;7.85;;;7.00;82.50;;;;;;5010491;28;20315;-72
2021/12/05 15:13:13;;;;;;;11.55;8.80;;;6.90;83.00;;;;;;5010041;28;20155;-72
2021/12/05 15:15:39;;;;;;;11.25;8.45;;;6.80;83.40;;;;;;5017975;28;20133;-71
2021/12/05 15:18:12;;;;;;;12.00;8.85;;;6.70;83.60;;;;;;5025547;28;20036;-74
2021/12/05 15:20:38;;;;;;;13.30;9.55;;;6.70;83.90;;;;;;5018488;28;20049;-71
2021/12/05 15:23:08;;;;;;;11.57;8.95;;;6.70;84.20;;;;;;5031719;28;20033;-71
2021/12/05 15:25:37;;;;;;;13.57;10.77;;;6.60;84.40;;;;;;5025632;28;20125;-71
2021/12/05 15:28:03;;;;;;;13.07;10.60;;;6.50;84.70;;;;;;5026991;28;20037;-72
2021/12/05 15:30:33;;;;;;;13.93;11.38;;;6.50;84.90;;;;;;5025153;28;20044;-72
2021/12/05 15:33:06;;;;;;;16.48;12.95;;;6.60;85.30;;;;;;5028459;28;20352;-69
2021/12/05 15:35:32;;;;;;;19.17;14.40;;;6.50;85.40;;;;;;5016235;28;20484;-72
2021/12/05 15:38:06;;;;;;;16.58;12.75;;;6.50;85.50;;;;;;5006861;28;20053;-72
2021/12/05 15:40:34;;;;;;;18.15;12.43;;;6.40;85.60;;;;;;5004261;28;20034;-74
2021/12/05 15:43:07;;;;;;;15.77;11.35;;;6.40;85.70;;;;;;5008760;28;20018;-71
2021/12/05 15:45:33;;;;;;;18.55;12.95;;;6.40;85.80;;;;;;5024586;28;20083;-72
2021/12/05 15:47:59;;;;;;;17.33;12.70;;;6.40;85.80;;;;;;5028665;28;20124;-72
2021/12/05 15:50:29;;;;;;;16.15;13.23;;;6.30;85.90;;;;;;5030689;28;20026;-70
2021/12/05 15:53:01;;;;;;;19.52;14.75;;;6.30;86.10;;;;;;5028369;28;20037;-70
2021/12/05 15:55:39;;;;;;;17.20;14.45;;;6.30;86.20;;;;;;5028033;28;20485;-72
2021/12/05 15:58:30;;;;;;;17.42;13.57;;;6.30;86.30;;;;;;5024962;28;20030;-71
2021/12/05 16:01:05;;;;;;;19.90;16.92;;;6.30;86.40;;;;;;5024022;28;20138;-71
2021/12/05 16:04:02;;;;;;;23.52;17.55;;;6.30;86.60;;;;;;5027558;28;20056;-73
2021/12/05 16:06:38;;;;;;;24.98;17.02;;;6.30;86.50;;;;;;5024716;28;20050;-72
2021/12/05 16:09:16;;;;;;;21.90;16.92;;;6.30;86.60;;;;;;5025488;28;20083;-70
2021/12/05 16:11:42;;;;;;;21.42;16.45;;;6.20;86.60;;;;;;5042149;28;20045;-71
2021/12/05 16:14:08;;;;;;;23.15;18.90;;;6.20;86.70;;;;;;5024453;28;20053;-74
2021/12/05 16:16:34;;;;;;;25.23;18.95;;;6.20;86.80;;;;;;5024005;28;20049;-72
2021/12/05 16:19:02;;;;;;;23.75;19.38;;;6.20;86.80;;;;;;5028340;28;20116;-70
2021/12/05 16:21:36;;;;;;;24.60;19.80;;;6.20;86.90;;;;;;5042470;28;20038;-71
2021/12/05 16:24:08;;;;;;;23.50;20.27;;;6.20;87.00;;;;;;5042365;28;20088;-70
2021/12/05 16:26:34;;;;;;;24.00;19.60;;;6.20;87.10;;;;;;5028401;28;20053;-70
2021/12/05 16:29:13;;;;;;;25.33;20.85;;;6.10;87.10;;;;;;5027681;28;20670;-70
2021/12/05 16:31:48;;;;;;;27.00;21.05;;;6.20;87.20;;;;;;5025428;28;20048;-71
2021/12/05 16:34:20;;;;;;;27.95;21.13;;;6.10;87.20;;;;;;5025287;28;20069;-70
2021/12/05 16:36:53;;;;;;;28.13;21.50;;;6.20;87.30;;;;;;5022020;28;20409;-71
2021/12/05 16:39:27;;;;;;;33.20;25.42;;;6.10;87.30;;;;;;5024988;28;20030;-71
2021/12/05 16:41:56;;;;;;;31.27;25.02;;;6.20;87.50;;;;;;5028750;28;20112;-70
2021/12/05 16:44:25;;;;;;;29.27;23.27;;;6.10;87.60;;;;;;5025982;28;20048;-71
2021/12/05 16:46:55;;;;;;;30.70;22.70;;;6.10;87.60;;;;;;5026190;28;20041;-71
2021/12/05 16:49:27;;;;;;;27.13;21.25;;;6.10;87.60;;;;;;5023291;28;20520;-70
2021/12/05 16:51:53;;;;;;;30.15;23.15;;;6.10;87.70;;;;;;5032546;28;20034;-71
2021/12/05 16:54:26;;;;;;;29.60;25.13;;;6.10;87.80;;;;;;5040089;28;20042;-72
2021/12/05 16:57:01;;;;;;;29.08;21.70;;;6.10;87.70;;;;;;5037405;28;20725;-72
2021/12/05 16:59:41;;;;;;;27.83;20.50;;;6.10;87.60;;;;;;5027796;28;20029;-75
2021/12/05 17:02:33;;;;;;;27.80;21.40;;;6.10;87.60;;;;;;5028199;28;20128;-72
2021/12/05 17:05:07;;;;;;;25.45;19.88;;;6.20;87.60;;;;;;5032817;28;20081;-73
2021/12/05 17:07:40;;;;;;;26.00;20.05;;;6.10;87.70;;;;;;5037083;28;20037;-71
2021/12/05 17:10:20;;;;;;;28.83;22.10;;;6.10;87.80;;;;;;5012463;28;20116;-75
2021/12/05 17:12:47;;;;;;;32.55;22.27;;;6.10;87.80;;;;;;5027507;28;20045;-74
2021/12/05 17:15:29;;;;;;;28.58;20.88;;;6.10;87.80;;;;;;5037695;28;20037;-76
2021/12/05 17:18:03;;;;;;;30.83;22.55;;;6.10;87.90;;;;;;5036412;28;20354;-76
2021/12/05 17:20:34;;;;;;;28.80;21.73;;;6.10;87.90;;;;;;5034188;28;20073;-77
2021/12/05 17:23:19;;;;;;;29.42;22.35;;;6.10;87.80;;;;;;5029043;28;20040;-79
2021/12/05 17:25:47;;;;;;;27.83;21.77;;;6.10;87.90;;;;;;5035642;28;20034;-77
2021/12/05 17:28:18;;;;;;;32.25;24.73;;;6.00;88.10;;;;;;5034302;28;20050;-75
2021/12/05 17:30:59;;;;;;;36.88;26.98;;;6.00;88.20;;;;;;5035814;28;20037;-76
2021/12/05 17:33:33;;;;;;;37.92;26.80;;;6.00;88.20;;;;;;5035561;28;20136;-75
2021/12/05 17:36:17;;;;;;;38.47;27.48;;;6.00;88.30;;;;;;5037452;28;20025;-76
2021/12/05 17:38:43;;;;;;;33.08;24.48;;;6.10;88.30;;;;;;5026217;28;20792;-76
2021/12/05 17:41:08;;;;;;;31.95;23.05;;;6.10;88.30;;;;;;5016293;28;20045;-76
2021/12/05 17:43:34;;;;;;;29.17;21.77;;;6.00;88.20;;;;;;5016699;28;20037;-76
2021/12/05 17:46:00;;;;;;;28.55;21.70;;;6.00;88.30;;;;;;5016525;28;20037;-77
2021/12/05 17:48:26;;;;;;;29.33;21.63;;;6.00;88.40;;;;;;5039430;28;20038;-79
2021/12/05 17:50:53;;;;;;;28.08;23.08;;;6.00;88.40;;;;;;5037623;28;20045;-73
2021/12/05 17:53:21;;;;;;;29.60;22.88;;;6.00;88.40;;;;;;5034324;28;20056;-73
2021/12/05 17:55:48;;;;;;;35.08;27.63;;;6.00;88.50;;;;;;5040328;28;20134;-75
2021/12/05 17:58:39;;;;;;;33.78;28.63;;;6.00;88.60;;;;;;5035589;28;20034;-77
2021/12/05 18:03:51;;;;;;;35.17;28.17;;;6.00;88.70;;;;;;5038189;28;20109;-76
2021/12/05 18:06:18;;;;;;;35.60;27.35;;;5.90;88.80;;;;;;5035684;28;20464;-77
2021/12/05 18:08:44;;;;;;;32.60;26.67;;;5.90;88.80;;;;;;5038829;28;20037;-74
2021/12/05 18:11:14;;;;;;;44.70;34.83;;;6.00;89.00;;;;;;5039762;28;20050;-72
2021/12/05 18:13:41;;;;;;;35.47;27.80;;;5.90;89.00;;;;;;5037531;28;20042;-73
2021/12/05 18:16:14;;;;;;;36.60;28.58;;;5.90;89.20;;;;;;5035073;28;20163;-74
2021/12/05 18:18:40;;;;;;;35.55;27.48;;;5.90;89.30;;;;;;5037039;28;20045;-74
2021/12/05 18:21:09;;;;;;;32.22;25.48;;;5.80;89.30;;;;;;5038352;28;20045;-74
2021/12/05 18:23:37;;;;;;;33.10;27.33;;;5.80;89.40;;;;;;5037581;28;20038;-75
2021/12/05 18:26:05;;;;;;;34.50;26.50;;;5.80;89.40;;;;;;5030586;28;20026;-74
2021/12/05 18:28:32;;;;;;;32.40;25.02;;;5.80;89.30;;;;;;5035983;28;20041;-75
2021/12/05 18:30:59;;;;;;;33.28;27.05;;;5.80;89.40;;;;;;5039840;28;20033;-76
2021/12/05 18:33:28;;;;;;;33.28;27.48;;;5.80;89.40;;;;;;5038657;28;20052;-74
2021/12/05 18:35:55;;;;;;;32.72;26.35;;;5.80;89.50;;;;;;5037815;28;20136;-74
2021/12/05 18:38:22;;;;;;;32.03;24.88;;;5.80;89.40;;;;;;5034326;28;20037;-73
2021/12/05 18:40:51;;;;;;;30.70;24.55;;;5.80;89.50;;;;;;5037845;28;20037;-75
2021/12/05 18:43:22;;;;;;;29.90;24.20;;;5.80;89.50;;;;;;5037571;28;20030;-77
2021/12/05 18:45:48;;;;;;;33.67;26.38;;;5.80;89.50;;;;;;5037822;28;20033;-76
2021/12/05 18:48:14;;;;;;;35.30;27.45;;;5.80;89.50;;;;;;5031854;28;20037;-73